Pittston, Pennsylvania
Current Conditions -  °F | °C
As of 7:54 AM on Sunday 21 Dec 2014 (Local Time) from KAVP Reporting Station
Overcast Overcast  
Wind Chill: 24°   Ceiling: 2000
Heat Index: 29°   Visibility: 10mi
Dew Point: 20°   Wind: 5mph
Humidity: 69%   Direction: 330°NNW
Pressure: 30.28"   Gusts: NA
Location:  41.32°N, 75.79°W
Report Text: KAVP 211254Z AUTO 33004KT 10SM OVC020 M02/M07 A3028 RMK AO2 SLP262 T10171067
Loading
Personal Weather Stations






























Interactive Weather Map New forecast layout! Learn more

10-Day Weather Forecast

Advertisements
Track Severe Weather on mobile